sensor_id;sensor_type;location;lat;lon;timestamp;pressure;altitude;pressure_sealevel;temperature;humidity
69622;BME280;56841;55.964;37.674;2022-09-21T00:00:23;99484.81;;;7.96;94.15
69622;BME280;56841;55.964;37.674;2022-09-21T00:02:50;99485.28;;;7.91;94.15
69622;BME280;56841;55.964;37.674;2022-09-21T00:05:16;99483.19;;;7.95;94.33
69622;BME280;56841;55.964;37.674;2022-09-21T00:07:43;99477.03;;;7.86;92.51
69622;BME280;56841;55.964;37.674;2022-09-21T00:10:09;99479.09;;;7.74;95.21
69622;BME280;56841;55.964;37.674;2022-09-21T00:12:36;99481.13;;;7.80;94.99
69622;BME280;56841;55.964;37.674;2022-09-21T00:15:06;99480.13;;;7.81;94.82
69622;BME280;56841;55.964;37.674;2022-09-21T00:17:32;99474.22;;;7.79;93.03
69622;BME280;56841;55.964;37.674;2022-09-21T00:19:58;99480.94;;;7.56;93.98
69622;BME280;56841;55.964;37.674;2022-09-21T00:22:29;99476.84;;;7.62;96.11
69622;BME280;56841;55.964;37.674;2022-09-21T00:24:56;99481.66;;;7.66;94.02
69622;BME280;56841;55.964;37.674;2022-09-21T00:27:22;99483.81;;;7.71;93.32
69622;BME280;56841;55.964;37.674;2022-09-21T00:29:59;99490.72;;;7.72;93.88
69622;BME280;56841;55.964;37.674;2022-09-21T00:32:30;99489.91;;;7.71;94.18
69622;BME280;56841;55.964;37.674;2022-09-21T00:34:57;99493.88;;;7.75;94.50
69622;BME280;56841;55.964;37.674;2022-09-21T00:37:25;99489.78;;;7.73;95.53
69622;BME280;56841;55.964;37.674;2022-09-21T00:39:51;99492.91;;;7.76;94.34
69622;BME280;56841;55.964;37.674;2022-09-21T00:42:25;99493.22;;;7.73;96.69
69622;BME280;56841;55.964;37.674;2022-09-21T00:44:54;99499.22;;;7.66;93.09
69622;BME280;56841;55.964;37.674;2022-09-21T00:49:56;99499.31;;;7.56;93.72
69622;BME280;56841;55.964;37.674;2022-09-21T00:52:25;99495.84;;;7.55;95.06
69622;BME280;56841;55.964;37.674;2022-09-21T00:54:55;99497.94;;;7.52;94.96
69622;BME280;56841;55.964;37.674;2022-09-21T00:57:24;99498.34;;;7.57;93.86
69622;BME280;56841;55.964;37.674;2022-09-21T00:59:54;99504.41;;;7.57;93.49
69622;BME280;56841;55.964;37.674;2022-09-21T01:02:21;99500.66;;;7.60;93.01
69622;BME280;56841;55.964;37.674;2022-09-21T01:04:48;99506.75;;;7.60;92.61
69622;BME280;56841;55.964;37.674;2022-09-21T01:07:17;99507.50;;;7.53;93.04
69622;BME280;56841;55.964;37.674;2022-09-21T01:09:47;99504.47;;;7.48;94.09
69622;BME280;56841;55.964;37.674;2022-09-21T01:18:14;99503.06;;;7.53;92.79
69622;BME280;56841;55.964;37.674;2022-09-21T01:31:53;99507.63;;;7.16;92.76
69622;BME280;56841;55.964;37.674;2022-09-21T01:34:28;99502.66;;;7.12;93.15
69622;BME280;56841;55.964;37.674;2022-09-21T01:36:58;99506.28;;;7.11;94.44
69622;BME280;56841;55.964;37.674;2022-09-21T01:39:28;99507.16;;;7.20;94.42
69622;BME280;56841;55.964;37.674;2022-09-21T01:41:55;99503.13;;;7.26;94.71
69622;BME280;56841;55.964;37.674;2022-09-21T01:44:25;99512.00;;;7.25;93.38
69622;BME280;56841;55.964;37.674;2022-09-21T01:46:54;99507.78;;;7.32;93.31
69622;BME280;56841;55.964;37.674;2022-09-21T01:49:38;99508.97;;;7.38;95.45
69622;BME280;56841;55.964;37.674;2022-09-21T01:52:34;99505.59;;;7.45;97.04
69622;BME280;56841;55.964;37.674;2022-09-21T01:55:33;99511.06;;;7.52;94.57
69622;BME280;56841;55.964;37.674;2022-09-21T02:01:28;99513.56;;;7.53;97.05
69622;BME280;56841;55.964;37.674;2022-09-21T02:04:08;99508.16;;;7.55;99.24
69622;BME280;56841;55.964;37.674;2022-09-21T02:06:39;99513.63;;;7.62;96.25
69622;BME280;56841;55.964;37.674;2022-09-21T02:09:06;99511.16;;;7.60;94.25
69622;BME280;56841;55.964;37.674;2022-09-21T02:11:33;99514.44;;;7.62;93.77
69622;BME280;56841;55.964;37.674;2022-09-21T02:14:03;99517.53;;;7.57;94.04
69622;BME280;56841;55.964;37.674;2022-09-21T02:26:57;99528.06;;;7.40;100.00
69622;BME280;56841;55.964;37.674;2022-09-21T02:30:08;99529.25;;;7.45;100.00
69622;BME280;56841;55.964;37.674;2022-09-21T02:38:39;99524.50;;;7.31;100.00
69622;BME280;56841;55.964;37.674;2022-09-21T02:41:22;99518.97;;;7.34;100.00
69622;BME280;56841;55.964;37.674;2022-09-21T02:44:11;99515.22;;;7.36;100.00
69622;BME280;56841;55.964;37.674;2022-09-21T02:47:28;99523.16;;;7.45;100.00
69622;BME280;56841;55.964;37.674;2022-09-21T02:49:32;99524.97;;;7.26;100.00
69622;BME280;56841;55.964;37.674;2022-09-21T02:52:10;99522.09;;;7.20;100.00
69622;BME280;56841;55.964;37.674;2022-09-21T02:54:38;99526.31;;;7.12;100.00
69622;BME280;56841;55.964;37.674;2022-09-21T02:57:06;99522.19;;;7.28;100.00
69622;BME280;56841;55.964;37.674;2022-09-21T02:59:33;99525.94;;;7.25;100.00
69622;BME280;56841;55.964;37.674;2022-09-21T03:01:59;99529.81;;;7.21;100.00
69622;BME280;56841;55.964;37.674;2022-09-21T03:04:25;99532.56;;;7.29;100.00
69622;BME280;56841;55.964;37.674;2022-09-21T03:06:52;99529.41;;;7.26;100.00
69622;BME280;56841;55.964;37.674;2022-09-21T03:09:18;99529.09;;;7.29;100.00
69622;BME280;56841;55.964;37.674;2022-09-21T03:11:45;99528.19;;;7.38;100.00
69622;BME280;56841;55.964;37.674;2022-09-21T03:14:11;99527.00;;;7.32;100.00
69622;BME280;56841;55.964;37.674;2022-09-21T03:16:37;99534.94;;;7.41;100.00
69622;BME280;56841;55.964;37.674;2022-09-21T03:19:04;99532.25;;;7.50;100.00
69622;BME280;56841;55.964;37.674;2022-09-21T03:21:30;99523.19;;;7.63;100.00
69622;BME280;56841;55.964;37.674;2022-09-21T03:23:56;99535.56;;;7.70;97.90
69622;BME280;56841;55.964;37.674;2022-09-21T03:26:22;99539.91;;;7.62;100.00
69622;BME280;56841;55.964;37.674;2022-09-21T03:28:48;99542.75;;;7.68;98.20
69622;BME280;56841;55.964;37.674;2022-09-21T03:31:14;99546.91;;;7.71;98.51
69622;BME280;56841;55.964;37.674;2022-09-21T03:33:40;99540.53;;;7.73;97.03
69622;BME280;56841;55.964;37.674;2022-09-21T03:36:06;99541.41;;;7.64;100.00
69622;BME280;56841;55.964;37.674;2022-09-21T03:38:32;99542.94;;;7.67;100.00
69622;BME280;56841;55.964;37.674;2022-09-21T03:40:58;99544.28;;;7.71;100.00
69622;BME280;56841;55.964;37.674;2022-09-21T03:43:24;99543.34;;;7.62;100.00
69622;BME280;56841;55.964;37.674;2022-09-21T03:45:50;99542.25;;;7.65;100.00
69622;BME280;56841;55.964;37.674;2022-09-21T03:48:16;99543.69;;;7.77;100.00
69622;BME280;56841;55.964;37.674;2022-09-21T03:50:41;99535.31;;;7.81;100.00
69622;BME280;56841;55.964;37.674;2022-09-21T03:53:08;99532.75;;;7.90;100.00
69622;BME280;56841;55.964;37.674;2022-09-21T03:55:35;99530.34;;;7.96;100.00
69622;BME280;56841;55.964;37.674;2022-09-21T03:58:01;99534.94;;;7.94;100.00
69622;BME280;56841;55.964;37.674;2022-09-21T04:00:28;99537.94;;;7.99;100.00
69622;BME280;56841;55.964;37.674;2022-09-21T04:02:54;99538.00;;;8.07;100.00
69622;BME280;56841;55.964;37.674;2022-09-21T04:05:20;99540.84;;;8.14;100.00
69622;BME280;56841;55.964;37.674;2022-09-21T04:07:46;99533.56;;;8.08;100.00
69622;BME280;56841;55.964;37.674;2022-09-21T04:10:14;99540.78;;;8.06;100.00
69622;BME280;56841;55.964;37.674;2022-09-21T04:12:42;99539.34;;;8.12;100.00
69622;BME280;56841;55.964;37.674;2022-09-21T04:15:14;99533.16;;;8.21;100.00
69622;BME280;56841;55.964;37.674;2022-09-21T04:17:41;99541.72;;;8.23;100.00
69622;BME280;56841;55.964;37.674;2022-09-21T04:20:07;99537.19;;;8.33;100.00
69622;BME280;56841;55.964;37.674;2022-09-21T04:22:34;99543.19;;;8.43;100.00
69622;BME280;56841;55.964;37.674;2022-09-21T04:25:02;99537.47;;;8.48;100.00
69622;BME280;56841;55.964;37.674;2022-09-21T04:27:30;99538.81;;;8.52;100.00
69622;BME280;56841;55.964;37.674;2022-09-21T04:29:56;99540.81;;;8.58;100.00
69622;BME280;56841;55.964;37.674;2022-09-21T04:32:22;99543.59;;;8.57;100.00
69622;BME280;56841;55.964;37.674;2022-09-21T04:34:48;99543.63;;;8.65;100.00
69622;BME280;56841;55.964;37.674;2022-09-21T04:37:15;99543.38;;;8.76;100.00
69622;BME280;56841;55.964;37.674;2022-09-21T04:39:41;99550.47;;;8.84;100.00
69622;BME280;56841;55.964;37.674;2022-09-21T04:42:08;99541.59;;;8.85;100.00
69622;BME280;56841;55.964;37.674;2022-09-21T04:44:35;99539.50;;;8.96;99.66
69622;BME280;56841;55.964;37.674;2022-09-21T04:47:04;99543.16;;;9.04;98.37
69622;BME280;56841;55.964;37.674;2022-09-21T04:49:30;99547.13;;;9.08;98.19
69622;BME280;56841;55.964;37.674;2022-09-21T04:51:56;99538.91;;;9.11;97.70
69622;BME280;56841;55.964;37.674;2022-09-21T04:54:22;99534.13;;;9.22;96.46
69622;BME280;56841;55.964;37.674;2022-09-21T04:56:48;99536.63;;;9.32;96.01
69622;BME280;56841;55.964;37.674;2022-09-21T04:59:15;99546.19;;;9.33;96.10
69622;BME280;56841;55.964;37.674;2022-09-21T05:01:41;99542.59;;;9.42;95.38
69622;BME280;56841;55.964;37.674;2022-09-21T05:04:07;99538.31;;;9.41;96.12
69622;BME280;56841;55.964;37.674;2022-09-21T05:06:33;99540.41;;;9.30;98.14
69622;BME280;56841;55.964;37.674;2022-09-21T05:08:59;99541.22;;;9.22;99.34
69622;BME280;56841;55.964;37.674;2022-09-21T05:11:43;99546.84;;;9.27;100.00
69622;BME280;56841;55.964;37.674;2022-09-21T05:14:10;99547.41;;;9.47;98.79
69622;BME280;56841;55.964;37.674;2022-09-21T05:16:36;99543.13;;;9.54;98.86
69622;BME280;56841;55.964;37.674;2022-09-21T05:19:03;99546.94;;;9.68;98.17
69622;BME280;56841;55.964;37.674;2022-09-21T05:21:31;99545.44;;;9.73;98.44
69622;BME280;56841;55.964;37.674;2022-09-21T05:23:57;99544.63;;;9.81;99.24
69622;BME280;56841;55.964;37.674;2022-09-21T05:26:23;99539.81;;;10.01;96.58
69622;BME280;56841;55.964;37.674;2022-09-21T05:28:50;99550.69;;;10.14;95.65
69622;BME280;56841;55.964;37.674;2022-09-21T05:33:53;99552.06;;;10.27;95.02
69622;BME280;56841;55.964;37.674;2022-09-21T05:39:02;99544.13;;;10.43;95.12
69622;BME280;56841;55.964;37.674;2022-09-21T05:41:28;99549.34;;;10.59;93.98
69622;BME280;56841;55.964;37.674;2022-09-21T05:43:54;99550.19;;;10.60;94.14
69622;BME280;56841;55.964;37.674;2022-09-21T05:46:40;99546.03;;;10.65;94.34
69622;BME280;56841;55.964;37.674;2022-09-21T05:49:54;99545.50;;;10.78;93.40
69622;BME280;56841;55.964;37.674;2022-09-21T05:52:37;99541.22;;;10.77;94.91
69622;BME280;56841;55.964;37.674;2022-09-21T05:55:17;99542.53;;;10.73;96.05
69622;BME280;56841;55.964;37.674;2022-09-21T06:00:17;99543.00;;;10.85;96.92
69622;BME280;56841;55.964;37.674;2022-09-21T06:05:34;99543.47;;;10.88;97.17
69622;BME280;56841;55.964;37.674;2022-09-21T06:08:00;99539.50;;;10.93;96.74
69622;BME280;56841;55.964;37.674;2022-09-21T06:10:31;99540.06;;;11.11;96.73
69622;BME280;56841;55.964;37.674;2022-09-21T06:12:58;99535.88;;;11.25;96.05
69622;BME280;56841;55.964;37.674;2022-09-21T06:15:24;99539.81;;;11.29;94.73
69622;BME280;56841;55.964;37.674;2022-09-21T06:17:50;99530.53;;;11.33;93.93
69622;BME280;56841;55.964;37.674;2022-09-21T06:20:16;99541.66;;;11.28;93.79
69622;BME280;56841;55.964;37.674;2022-09-21T06:22:41;99543.75;;;11.33;94.93
69622;BME280;56841;55.964;37.674;2022-09-21T06:25:07;99546.78;;;11.53;93.72
69622;BME280;56841;55.964;37.674;2022-09-21T06:27:34;99539.91;;;11.67;92.62
69622;BME280;56841;55.964;37.674;2022-09-21T06:30:00;99544.59;;;11.79;91.22
69622;BME280;56841;55.964;37.674;2022-09-21T06:32:25;99529.63;;;11.95;90.44
69622;BME280;56841;55.964;37.674;2022-09-21T06:34:51;99535.34;;;12.21;88.16
69622;BME280;56841;55.964;37.674;2022-09-21T06:37:18;99538.56;;;12.31;86.16
69622;BME280;56841;55.964;37.674;2022-09-21T06:39:44;99540.66;;;12.51;85.39
69622;BME280;56841;55.964;37.674;2022-09-21T06:42:10;99536.00;;;12.68;83.43
69622;BME280;56841;55.964;37.674;2022-09-21T06:44:36;99540.84;;;12.64;83.79
69622;BME280;56841;55.964;37.674;2022-09-21T06:47:02;99535.72;;;12.77;83.65
69622;BME280;56841;55.964;37.674;2022-09-21T06:49:27;99535.81;;;12.84;81.84
69622;BME280;56841;55.964;37.674;2022-09-21T06:51:54;99537.44;;;12.85;81.52
69622;BME280;56841;55.964;37.674;2022-09-21T06:54:21;99536.63;;;12.85;82.17
69622;BME280;56841;55.964;37.674;2022-09-21T06:56:47;99540.94;;;13.00;81.25
69622;BME280;56841;55.964;37.674;2022-09-21T06:59:13;99543.03;;;12.90;81.29
69622;BME280;56841;55.964;37.674;2022-09-21T07:01:39;99539.75;;;13.03;81.21
69622;BME280;56841;55.964;37.674;2022-09-21T07:04:05;99542.03;;;13.06;81.43
69622;BME280;56841;55.964;37.674;2022-09-21T07:06:34;99543.22;;;13.03;81.36
69622;BME280;56841;55.964;37.674;2022-09-21T07:08:59;99542.56;;;13.16;80.51
69622;BME280;56841;55.964;37.674;2022-09-21T07:11:27;99534.97;;;13.13;81.26
69622;BME280;56841;55.964;37.674;2022-09-21T07:13:54;99545.47;;;13.21;80.28
69622;BME280;56841;55.964;37.674;2022-09-21T07:16:21;99539.91;;;13.31;79.44
69622;BME280;56841;55.964;37.674;2022-09-21T07:18:47;99546.72;;;13.40;79.22
69622;BME280;56841;55.964;37.674;2022-09-21T07:21:13;99550.66;;;13.44;78.76
69622;BME280;56841;55.964;37.674;2022-09-21T07:23:40;99546.53;;;13.42;77.98
69622;BME280;56841;55.964;37.674;2022-09-21T07:26:12;99545.59;;;13.49;77.89
69622;BME280;56841;55.964;37.674;2022-09-21T07:28:39;99548.16;;;13.43;77.60
69622;BME280;56841;55.964;37.674;2022-09-21T07:31:11;99544.03;;;13.55;76.37
69622;BME280;56841;55.964;37.674;2022-09-21T07:33:39;99539.34;;;13.57;76.84
69622;BME280;56841;55.964;37.674;2022-09-21T07:36:06;99540.47;;;13.69;76.43
69622;BME280;56841;55.964;37.674;2022-09-21T07:38:42;99538.47;;;13.93;75.89
69622;BME280;56841;55.964;37.674;2022-09-21T07:41:10;99540.09;;;13.94;75.74
69622;BME280;56841;55.964;37.674;2022-09-21T07:43:37;99541.84;;;14.08;74.49
69622;BME280;56841;55.964;37.674;2022-09-21T07:46:07;99546.31;;;14.29;74.35
69622;BME280;56841;55.964;37.674;2022-09-21T07:48:35;99542.47;;;14.38;73.75
69622;BME280;56841;55.964;37.674;2022-09-21T07:51:04;99543.25;;;14.54;71.85
69622;BME280;56841;55.964;37.674;2022-09-21T07:53:37;99539.13;;;14.51;71.55
69622;BME280;56841;55.964;37.674;2022-09-21T07:56:25;99547.84;;;14.45;71.54
69622;BME280;56841;55.964;37.674;2022-09-21T07:58:52;99542.00;;;14.56;71.54
69622;BME280;56841;55.964;37.674;2022-09-21T08:01:39;99543.34;;;14.74;70.87
69622;BME280;56841;55.964;37.674;2022-09-21T08:04:08;99541.34;;;14.82;70.01
69622;BME280;56841;55.964;37.674;2022-09-21T08:06:36;99544.13;;;15.09;69.60
69622;BME280;56841;55.964;37.674;2022-09-21T08:09:05;99530.06;;;15.22;68.52
69622;BME280;56841;55.964;37.674;2022-09-21T08:11:31;99538.50;;;15.38;67.47
69622;BME280;56841;55.964;37.674;2022-09-21T08:14:00;99538.25;;;15.27;67.65
69622;BME280;56841;55.964;37.674;2022-09-21T08:16:27;99539.28;;;15.26;68.03
69622;BME280;56841;55.964;37.674;2022-09-21T08:18:53;99535.88;;;15.58;67.68
69622;BME280;56841;55.964;37.674;2022-09-21T08:21:19;99528.72;;;15.46;66.26
69622;BME280;56841;55.964;37.674;2022-09-21T08:23:47;99534.66;;;15.61;65.78
69622;BME280;56841;55.964;37.674;2022-09-21T08:26:15;99526.50;;;15.76;65.85
69622;BME280;56841;55.964;37.674;2022-09-21T08:28:48;99538.13;;;15.61;65.43
69622;BME280;56841;55.964;37.674;2022-09-21T08:31:17;99535.53;;;15.75;64.80
69622;BME280;56841;55.964;37.674;2022-09-21T08:33:44;99532.69;;;15.83;65.45
69622;BME280;56841;55.964;37.674;2022-09-21T08:36:10;99533.09;;;15.86;64.77
69622;BME280;56841;55.964;37.674;2022-09-21T08:38:37;99534.31;;;15.84;63.16
69622;BME280;56841;55.964;37.674;2022-09-21T08:47:17;99529.00;;;15.97;63.19
69622;BME280;56841;55.964;37.674;2022-09-21T08:49:57;99529.19;;;16.02;63.25
69622;BME280;56841;55.964;37.674;2022-09-21T08:52:25;99532.25;;;15.86;63.37
69622;BME280;56841;55.964;37.674;2022-09-21T08:54:56;99527.38;;;15.83;63.43
69622;BME280;56841;55.964;37.674;2022-09-21T08:57:28;99524.06;;;15.68;64.60
69622;BME280;56841;55.964;37.674;2022-09-21T08:59:55;99531.00;;;15.75;64.55
69622;BME280;56841;55.964;37.674;2022-09-21T09:02:43;99520.19;;;15.83;64.44
69622;BME280;56841;55.964;37.674;2022-09-21T09:10:56;99518.94;;;16.19;63.80
69622;BME280;56841;55.964;37.674;2022-09-21T09:19:05;99502.16;;;16.05;62.39
69622;BME280;56841;55.964;37.674;2022-09-21T09:21:38;99508.09;;;15.74;62.85
69622;BME280;56841;55.964;37.674;2022-09-21T09:26:53;99499.47;;;15.79;62.85
69622;BME280;56841;55.964;37.674;2022-09-21T09:29:33;99502.56;;;15.69;62.71
69622;BME280;56841;55.964;37.674;2022-09-21T09:32:02;99497.22;;;15.89;62.49
69622;BME280;56841;55.964;37.674;2022-09-21T09:34:40;99502.38;;;16.04;61.97
69622;BME280;56841;55.964;37.674;2022-09-21T09:37:14;99501.31;;;16.25;59.40
69622;BME280;56841;55.964;37.674;2022-09-21T09:39:42;99498.03;;;16.09;59.50
69622;BME280;56841;55.964;37.674;2022-09-21T09:50:09;99485.34;;;16.05;58.96
69622;BME280;56841;55.964;37.674;2022-09-21T09:52:39;99482.69;;;15.92;58.72
69622;BME280;56841;55.964;37.674;2022-09-21T09:57:39;99492.53;;;15.91;59.30
69622;BME280;56841;55.964;37.674;2022-09-21T10:00:06;99487.84;;;15.86;58.97
69622;BME280;56841;55.964;37.674;2022-09-21T10:02:46;99484.13;;;15.87;58.97
69622;BME280;56841;55.964;37.674;2022-09-21T10:05:35;99486.16;;;15.79;58.80
69622;BME280;56841;55.964;37.674;2022-09-21T10:08:28;99491.88;;;15.62;58.95
69622;BME280;56841;55.964;37.674;2022-09-21T10:10:55;99498.06;;;15.83;58.71
69622;BME280;56841;55.964;37.674;2022-09-21T10:13:28;99483.09;;;16.08;57.43
69622;BME280;56841;55.964;37.674;2022-09-21T10:15:58;99483.09;;;16.15;56.84
69622;BME280;56841;55.964;37.674;2022-09-21T10:21:16;99492.53;;;16.18;57.99
69622;BME280;56841;55.964;37.674;2022-09-21T10:23:59;99483.50;;;16.05;58.98
69622;BME280;56841;55.964;37.674;2022-09-21T10:26:36;99476.31;;;16.13;58.99
69622;BME280;56841;55.964;37.674;2022-09-21T10:31:59;99474.25;;;16.41;59.06
69622;BME280;56841;55.964;37.674;2022-09-21T10:34:40;99473.16;;;16.62;58.73
69622;BME280;56841;55.964;37.674;2022-09-21T10:37:31;99469.63;;;16.68;56.64
69622;BME280;56841;55.964;37.674;2022-09-21T10:40:03;99453.88;;;16.60;55.99
69622;BME280;56841;55.964;37.674;2022-09-21T10:42:36;99466.41;;;16.53;55.79
69622;BME280;56841;55.964;37.674;2022-09-21T10:45:25;99459.59;;;16.64;56.12
69622;BME280;56841;55.964;37.674;2022-09-21T10:47:57;99466.38;;;16.59;55.11
69622;BME280;56841;55.964;37.674;2022-09-21T10:50:32;99467.63;;;16.50;55.47
69622;BME280;56841;55.964;37.674;2022-09-21T10:53:32;99466.84;;;16.37;55.85
69622;BME280;56841;55.964;37.674;2022-09-21T10:58:38;99473.63;;;16.39;55.88
69622;BME280;56841;55.964;37.674;2022-09-21T11:01:21;99464.97;;;16.50;55.07
69622;BME280;56841;55.964;37.674;2022-09-21T11:06:21;99462.56;;;16.35;55.21
69622;BME280;56841;55.964;37.674;2022-09-21T11:08:51;99460.41;;;16.64;54.51
69622;BME280;56841;55.964;37.674;2022-09-21T11:11:36;99467.06;;;16.42;54.24
69622;BME280;56841;55.964;37.674;2022-09-21T11:19:42;99462.50;;;16.55;54.57
69622;BME280;56841;55.964;37.674;2022-09-21T11:25:47;99463.72;;;16.59;55.95
69622;BME280;56841;55.964;37.674;2022-09-21T11:28:23;99456.78;;;16.52;56.20
69622;BME280;56841;55.964;37.674;2022-09-21T11:39:35;99461.94;;;16.33;56.76
69622;BME280;56841;55.964;37.674;2022-09-21T11:42:13;99460.31;;;16.26;56.71
69622;BME280;56841;55.964;37.674;2022-09-21T11:44:58;99455.25;;;16.11;56.63
69622;BME280;56841;55.964;37.674;2022-09-21T12:23:27;99434.19;;;15.76;56.94
69622;BME280;56841;55.964;37.674;2022-09-21T12:25:57;99432.34;;;15.70;57.59
69622;BME280;56841;55.964;37.674;2022-09-21T12:28:30;99433.38;;;15.69;57.42
69622;BME280;56841;55.964;37.674;2022-09-21T12:31:10;99437.00;;;15.61;57.58
69622;BME280;56841;55.964;37.674;2022-09-21T12:33:41;99435.38;;;15.47;58.21
69622;BME280;56841;55.964;37.674;2022-09-21T12:36:15;99440.06;;;15.38;58.19
69622;BME280;56841;55.964;37.674;2022-09-21T12:38:51;99445.56;;;15.24;58.70
69622;BME280;56841;55.964;37.674;2022-09-21T12:44:18;99433.06;;;15.04;59.56
69622;BME280;56841;55.964;37.674;2022-09-21T12:47:07;99431.22;;;15.05;59.32
69622;BME280;56841;55.964;37.674;2022-09-21T12:49:40;99435.28;;;15.07;60.08
69622;BME280;56841;55.964;37.674;2022-09-21T12:52:09;99437.75;;;15.02;60.27
69622;BME280;56841;55.964;37.674;2022-09-21T12:54:48;99435.91;;;15.03;60.99
69622;BME280;56841;55.964;37.674;2022-09-21T12:59:59;99440.38;;;14.89;62.11
69622;BME280;56841;55.964;37.674;2022-09-21T13:02:37;99433.03;;;14.98;62.01
69622;BME280;56841;55.964;37.674;2022-09-21T13:05:20;99440.81;;;15.06;62.20
69622;BME280;56841;55.964;37.674;2022-09-21T13:08:05;99431.78;;;15.00;62.41
69622;BME280;56841;55.964;37.674;2022-09-21T13:10:37;99427.69;;;14.91;62.61
69622;BME280;56841;55.964;37.674;2022-09-21T13:13:53;99426.25;;;14.88;62.57
69622;BME280;56841;55.964;37.674;2022-09-21T13:15:53;99430.31;;;14.78;63.25
69622;BME280;56841;55.964;37.674;2022-09-21T13:20:51;99429.28;;;14.79;63.15
69622;BME280;56841;55.964;37.674;2022-09-21T13:23:25;99434.00;;;14.83;63.18
69622;BME280;56841;55.964;37.674;2022-09-21T13:26:03;99431.53;;;14.75;63.59
69622;BME280;56841;55.964;37.674;2022-09-21T13:28:58;99428.66;;;14.77;63.48
69622;BME280;56841;55.964;37.674;2022-09-21T13:36:41;99436.22;;;14.73;64.40
69622;BME280;56841;55.964;37.674;2022-09-21T13:41:35;99433.75;;;14.72;64.47
69622;BME280;56841;55.964;37.674;2022-09-21T13:44:04;99436.63;;;14.77;64.52
69622;BME280;56841;55.964;37.674;2022-09-21T13:51:54;99422.50;;;14.69;65.01
69622;BME280;56841;55.964;37.674;2022-09-21T13:54:27;99427.22;;;14.67;65.57
69622;BME280;56841;55.964;37.674;2022-09-21T13:57:03;99428.41;;;14.65;65.83
69622;BME280;56841;55.964;37.674;2022-09-21T13:59:32;99427.81;;;14.69;65.92
69622;BME280;56841;55.964;37.674;2022-09-21T14:02:00;99432.47;;;14.54;66.51
69622;BME280;56841;55.964;37.674;2022-09-21T14:04:33;99422.66;;;14.55;66.51
69622;BME280;56841;55.964;37.674;2022-09-21T14:07:04;99422.25;;;14.58;66.68
69622;BME280;56841;55.964;37.674;2022-09-21T14:09:51;99432.06;;;14.57;66.85
69622;BME280;56841;55.964;37.674;2022-09-21T14:12:21;99428.78;;;14.55;67.36
69622;BME280;56841;55.964;37.674;2022-09-21T14:15:10;99428.72;;;14.49;67.60
69622;BME280;56841;55.964;37.674;2022-09-21T14:17:45;99425.59;;;14.38;69.04
69622;BME280;56841;55.964;37.674;2022-09-21T14:20:33;99436.31;;;14.17;70.28
69622;BME280;56841;55.964;37.674;2022-09-21T14:25:55;99432.03;;;13.88;75.25
69622;BME280;56841;55.964;37.674;2022-09-21T14:28:33;99433.25;;;13.85;75.61
69622;BME280;56841;55.964;37.674;2022-09-21T14:31:07;99429.78;;;13.85;76.11
69622;BME280;56841;55.964;37.674;2022-09-21T14:33:43;99429.53;;;13.80;76.07
69622;BME280;56841;55.964;37.674;2022-09-21T14:36:18;99430.44;;;13.65;77.20
69622;BME280;56841;55.964;37.674;2022-09-21T14:38:52;99431.13;;;13.74;76.91
69622;BME280;56841;55.964;37.674;2022-09-21T14:41:23;99439.72;;;13.76;76.07
69622;BME280;56841;55.964;37.674;2022-09-21T14:43:53;99432.81;;;13.82;75.47
69622;BME280;56841;55.964;37.674;2022-09-21T14:54:36;99428.13;;;13.84;76.75
69622;BME280;56841;55.964;37.674;2022-09-21T15:00:19;99429.53;;;13.80;76.69
69622;BME280;56841;55.964;37.674;2022-09-21T15:05:33;99432.13;;;13.73;78.66
69622;BME280;56841;55.964;37.674;2022-09-21T15:08:24;99434.69;;;13.60;79.48
69622;BME280;56841;55.964;37.674;2022-09-21T15:11:25;99427.88;;;13.50;80.95
69622;BME280;56841;55.964;37.674;2022-09-21T15:16:48;99435.72;;;13.37;81.52
69622;BME280;56841;55.964;37.674;2022-09-21T15:19:32;99434.06;;;13.36;81.17
69622;BME280;56841;55.964;37.674;2022-09-21T15:22:16;99437.50;;;13.30;80.60
69622;BME280;56841;55.964;37.674;2022-09-21T15:24:50;99447.66;;;13.26;81.21
69622;BME280;56841;55.964;37.674;2022-09-21T15:27:18;99444.06;;;13.19;80.80
69622;BME280;56841;55.964;37.674;2022-09-21T15:29:47;99446.66;;;13.13;81.14
69622;BME280;56841;55.964;37.674;2022-09-21T15:32:39;99446.97;;;13.03;81.14
69622;BME280;56841;55.964;37.674;2022-09-21T15:35:18;99449.19;;;12.99;80.93
69622;BME280;56841;55.964;37.674;2022-09-21T15:37:45;99454.66;;;12.98;81.92
69622;BME280;56841;55.964;37.674;2022-09-21T15:40:18;99455.66;;;12.97;81.49
69622;BME280;56841;55.964;37.674;2022-09-21T15:46:05;99465.19;;;12.91;81.32
69622;BME280;56841;55.964;37.674;2022-09-21T15:48:37;99466.13;;;12.84;81.68
69622;BME280;56841;55.964;37.674;2022-09-21T15:53:49;99467.81;;;12.91;82.19
69622;BME280;56841;55.964;37.674;2022-09-21T15:56:19;99467.22;;;12.89;82.51
69622;BME280;56841;55.964;37.674;2022-09-21T15:58:46;99468.28;;;12.95;81.81
69622;BME280;56841;55.964;37.674;2022-09-21T16:01:16;99472.13;;;12.92;81.95
69622;BME280;56841;55.964;37.674;2022-09-21T16:03:46;99475.59;;;12.93;81.36
69622;BME280;56841;55.964;37.674;2022-09-21T16:06:36;99467.75;;;12.85;81.53
69622;BME280;56841;55.964;37.674;2022-09-21T16:09:38;99476.72;;;12.84;82.00
69622;BME280;56841;55.964;37.674;2022-09-21T16:12:44;99479.56;;;12.82;81.49
69622;BME280;56841;55.964;37.674;2022-09-21T16:18:00;99485.59;;;12.76;81.61
69622;BME280;56841;55.964;37.674;2022-09-21T16:20:46;99480.22;;;12.69;82.27
69622;BME280;56841;55.964;37.674;2022-09-21T16:23:16;99486.41;;;12.76;81.81
69622;BME280;56841;55.964;37.674;2022-09-21T16:25:52;99485.75;;;12.74;82.49
69622;BME280;56841;55.964;37.674;2022-09-21T16:30:50;99480.94;;;12.63;82.12
69622;BME280;56841;55.964;37.674;2022-09-21T16:38:42;99489.81;;;12.55;83.18